Time;durP1;ratioP1;P1;durP2;ratioP2;P2;SDS_P1;SDS_P2;PMS_P1;PMS_P2;Temp;Humidity;BMP_temperature;BMP_pressure;BME280_temperature;BME280_humidity;BME280_pressure;Samples;Min_cycle;Max_cycle;Signal;HPM_P1;HPM_P2
2023/06/12 00:00:47;;;;;;;6.35;3.30;;;19.50;96.00;;;;;;5052247;28;20477;-60
2023/06/12 00:03:13;;;;;;;8.15;3.45;;;19.40;96.20;;;;;;5053039;28;20041;-60
2023/06/12 00:05:43;;;;;;;6.88;3.25;;;19.40;96.30;;;;;;5035109;28;20068;-59
2023/06/12 00:08:11;;;;;;;7.72;3.00;;;19.40;96.60;;;;;;5034143;28;20390;-60
2023/06/12 00:10:38;;;;;;;8.80;4.00;;;19.40;96.70;;;;;;5053062;28;20469;-60
2023/06/12 00:13:04;;;;;;;5.85;3.05;;;19.30;96.90;;;;;;5053231;28;20043;-60
2023/06/12 00:15:30;;;;;;;6.68;3.60;;;19.30;97.00;;;;;;5035793;28;20045;-60
2023/06/12 00:17:56;;;;;;;9.80;3.25;;;19.20;97.10;;;;;;5034713;28;20049;-60
2023/06/12 00:20:21;;;;;;;6.68;3.35;;;19.20;97.40;;;;;;5033806;28;20094;-60
2023/06/12 00:22:47;;;;;;;8.98;3.13;;;19.10;97.50;;;;;;5018348;28;20037;-59
2023/06/12 00:25:13;;;;;;;6.10;3.10;;;19.10;97.70;;;;;;5044351;28;20447;-60
2023/06/12 00:27:38;;;;;;;9.40;3.97;;;19.10;98.00;;;;;;5053779;28;20036;-60
2023/06/12 00:30:05;;;;;;;11.73;3.50;;;19.00;98.10;;;;;;5054831;28;20036;-59
2023/06/12 00:32:30;;;;;;;6.80;3.03;;;18.90;98.40;;;;;;5072430;28;20044;-60
2023/06/12 00:34:56;;;;;;;5.97;3.00;;;18.90;98.50;;;;;;5053376;28;20382;-59
2023/06/12 00:37:24;;;;;;;6.60;3.22;;;18.90;98.90;;;;;;5072149;28;20036;-60
2023/06/12 00:39:51;;;;;;;6.97;3.05;;;18.90;99.20;;;;;;5071259;28;20040;-59
2023/06/12 00:42:17;;;;;;;7.60;3.50;;;18.80;99.40;;;;;;5071415;28;20045;-59
2023/06/12 00:44:42;;;;;;;8.50;3.05;;;18.70;99.50;;;;;;5071644;28;20129;-59
2023/06/12 00:47:10;;;;;;;6.40;3.30;;;18.70;99.80;;;;;;5054375;28;20076;-59
2023/06/12 00:49:36;;;;;;;5.30;2.92;;;18.60;99.90;;;;;;5037772;28;20048;-59
2023/06/12 00:52:03;;;;;;;6.82;3.15;;;18.60;99.90;;;;;;5034434;28;20457;-59
2023/06/12 00:54:29;;;;;;;7.25;3.20;;;18.60;99.90;;;;;;5034143;28;20049;-59
2023/06/12 00:56:56;;;;;;;4.80;2.60;;;18.50;99.90;;;;;;5033368;28;20056;-59
2023/06/12 00:59:23;;;;;;;8.43;2.90;;;18.50;99.90;;;;;;5051969;28;20478;-59
2023/06/12 01:01:49;;;;;;;7.20;3.08;;;18.40;99.90;;;;;;5051972;28;20043;-59
2023/06/12 01:04:16;;;;;;;7.75;3.28;;;18.30;99.90;;;;;;5033048;28;20119;-59
2023/06/12 01:06:57;;;;;;;7.18;3.17;;;18.30;99.90;;;;;;5033878;28;20128;-59
2023/06/12 01:09:36;;;;;;;6.55;3.10;;;18.30;99.90;;;;;;5051770;28;20068;-59
2023/06/12 01:12:03;;;;;;;8.60;3.28;;;18.20;99.90;;;;;;5034142;28;20091;-59
2023/06/12 01:14:29;;;;;;;8.07;2.83;;;18.10;99.90;;;;;;5051823;28;20091;-59
2023/06/12 01:16:58;;;;;;;6.32;3.00;;;18.10;99.90;;;;;;5016864;28;20389;-59
2023/06/12 01:19:24;;;;;;;6.22;3.60;;;18.00;99.90;;;;;;5040195;28;20056;-59
2023/06/12 01:21:57;;;;;;;7.32;3.58;;;18.00;99.90;;;;;;5033901;28;20045;-59
2023/06/12 01:24:40;;;;;;;8.27;3.67;;;18.00;99.90;;;;;;5050885;28;20498;-59
2023/06/12 01:27:14;;;;;;;6.00;3.10;;;17.90;99.90;;;;;;5051982;28;20123;-59
2023/06/12 01:29:53;;;;;;;8.05;2.97;;;17.90;99.90;;;;;;5051952;28;20033;-60
2023/06/12 01:32:20;;;;;;;6.88;3.50;;;17.80;99.90;;;;;;5033044;28;20552;-59
2023/06/12 01:34:59;;;;;;;6.25;3.22;;;17.80;99.90;;;;;;5034105;28;20457;-59
2023/06/12 01:37:45;;;;;;;6.80;2.85;;;17.70;99.90;;;;;;5051655;28;20124;-59
2023/06/12 01:40:13;;;;;;;7.15;2.97;;;17.70;99.90;;;;;;5051432;28;20116;-59
2023/06/12 01:42:40;;;;;;;5.88;3.38;;;17.60;99.90;;;;;;5033858;28;20124;-59
2023/06/12 01:45:06;;;;;;;9.18;3.65;;;17.60;99.90;;;;;;5050876;28;20489;-59
2023/06/12 01:47:32;;;;;;;6.03;2.88;;;17.50;99.90;;;;;;5033837;28;20080;-59
2023/06/12 01:49:58;;;;;;;5.53;2.83;;;17.50;99.90;;;;;;5051844;28;20068;-59
2023/06/12 01:52:29;;;;;;;7.07;3.13;;;17.40;99.90;;;;;;5037178;28;20051;-59
2023/06/12 01:54:59;;;;;;;7.53;3.42;;;17.40;99.90;;;;;;5037859;28;20702;-59
2023/06/12 01:57:25;;;;;;;7.07;3.30;;;17.30;99.90;;;;;;5055451;28;20044;-59
2023/06/12 01:59:54;;;;;;;6.97;3.47;;;17.20;99.90;;;;;;5020243;28;20041;-59
2023/06/12 02:02:20;;;;;;;7.45;3.40;;;17.20;99.90;;;;;;5037250;28;20071;-59
2023/06/12 02:04:46;;;;;;;7.88;3.55;;;17.10;99.90;;;;;;5036866;28;20072;-59
2023/06/12 02:07:13;;;;;;;7.18;3.35;;;17.10;99.90;;;;;;5032133;28;20041;-60
2023/06/12 02:09:38;;;;;;;8.95;3.63;;;17.00;99.90;;;;;;5074944;28;20047;-59
2023/06/12 02:12:04;;;;;;;9.82;3.58;;;17.00;99.90;;;;;;5075425;28;20040;-59
2023/06/12 02:14:30;;;;;;;9.98;3.20;;;17.00;99.90;;;;;;5036893;28;20748;-59
2023/06/12 02:16:56;;;;;;;7.35;3.13;;;16.90;99.90;;;;;;5037051;28;20115;-59
2023/06/12 02:19:22;;;;;;;8.35;4.07;;;16.90;99.90;;;;;;5054813;28;20519;-59
2023/06/12 02:21:55;;;;;;;5.95;3.50;;;16.80;99.90;;;;;;5054131;28;20064;-59
2023/06/12 02:24:25;;;;;;;6.20;3.10;;;16.80;99.90;;;;;;5036740;28;20045;-60
2023/06/12 02:26:51;;;;;;;7.68;3.40;;;16.70;99.90;;;;;;5053661;28;20497;-60
2023/06/12 02:29:17;;;;;;;6.50;3.25;;;16.70;99.90;;;;;;5036642;28;20045;-59
2023/06/12 02:31:42;;;;;;;9.02;3.72;;;16.70;99.90;;;;;;5036911;28;20040;-60
2023/06/12 02:34:08;;;;;;;6.85;3.17;;;16.60;99.90;;;;;;5036344;28;20049;-60
2023/06/12 02:36:34;;;;;;;7.22;3.08;;;16.60;99.90;;;;;;5055765;28;20051;-60
2023/06/12 02:39:01;;;;;;;6.03;3.28;;;16.60;99.90;;;;;;5056924;28;20174;-59
2023/06/12 02:41:27;;;;;;;7.75;3.67;;;16.50;99.90;;;;;;5055904;28;20067;-59
2023/06/12 02:43:53;;;;;;;7.07;3.05;;;16.50;99.90;;;;;;5056419;28;20131;-59
2023/06/12 02:46:19;;;;;;;8.10;3.85;;;16.50;99.90;;;;;;5056131;28;20127;-59
2023/06/12 02:48:45;;;;;;;9.55;4.05;;;16.50;99.90;;;;;;5039469;28;20080;-59
2023/06/12 02:51:11;;;;;;;7.80;3.80;;;16.40;99.90;;;;;;5074579;28;20063;-59
2023/06/12 02:53:36;;;;;;;7.88;3.72;;;16.40;99.90;;;;;;5074121;28;20064;-59
2023/06/12 02:56:02;;;;;;;6.82;3.53;;;16.40;99.90;;;;;;5052071;28;20099;-59
2023/06/12 02:58:28;;;;;;;6.22;3.58;;;16.30;99.90;;;;;;5054178;28;20044;-59
2023/06/12 03:00:55;;;;;;;8.13;4.00;;;16.30;99.90;;;;;;5053646;28;20155;-59
2023/06/12 03:03:21;;;;;;;9.93;4.05;;;16.30;99.90;;;;;;5052286;28;20098;-59
2023/06/12 03:05:47;;;;;;;9.07;3.70;;;16.20;99.90;;;;;;5036044;28;20045;-59
2023/06/12 03:08:16;;;;;;;9.20;4.03;;;16.20;99.90;;;;;;5036381;28;20067;-59
2023/06/12 03:10:42;;;;;;;8.70;4.13;;;16.20;99.90;;;;;;5053267;28;20037;-59
2023/06/12 03:13:08;;;;;;;9.20;4.18;;;16.20;99.90;;;;;;5054140;28;20474;-59
2023/06/12 03:15:34;;;;;;;7.13;3.42;;;16.20;99.90;;;;;;5042351;28;20123;-59
2023/06/12 03:18:00;;;;;;;9.57;3.50;;;16.10;99.90;;;;;;5035439;28;20041;-59
2023/06/12 03:20:26;;;;;;;7.60;3.88;;;16.20;99.90;;;;;;5019555;28;20040;-59
2023/06/12 03:22:52;;;;;;;7.95;3.67;;;16.10;99.90;;;;;;5036101;28;20123;-59
2023/06/12 03:25:18;;;;;;;7.65;3.42;;;16.10;99.90;;;;;;5052858;28;20037;-59
2023/06/12 03:27:47;;;;;;;9.52;3.90;;;16.10;99.90;;;;;;5053723;28;20402;-59
2023/06/12 03:30:13;;;;;;;9.32;3.50;;;16.10;99.90;;;;;;5034720;28;20045;-59
2023/06/12 03:32:39;;;;;;;10.13;4.18;;;16.10;99.90;;;;;;5035753;28;20037;-59
2023/06/12 03:35:05;;;;;;;8.13;3.85;;;16.00;99.90;;;;;;5019655;28;20130;-59
2023/06/12 03:37:30;;;;;;;8.48;3.40;;;16.00;99.90;;;;;;5052767;28;20513;-59
2023/06/12 03:39:56;;;;;;;8.25;3.75;;;16.00;99.90;;;;;;5035474;28;20120;-59
2023/06/12 03:42:22;;;;;;;9.07;4.28;;;16.00;99.90;;;;;;5053145;28;20080;-59
2023/06/12 03:44:48;;;;;;;9.13;4.25;;;16.00;99.90;;;;;;5052499;28;20433;-59
2023/06/12 03:47:14;;;;;;;9.20;3.88;;;16.00;99.90;;;;;;5035403;28;20041;-59
2023/06/12 03:49:40;;;;;;;8.93;3.67;;;16.00;99.90;;;;;;5053208;28;20037;-59
2023/06/12 03:52:07;;;;;;;9.68;4.25;;;16.00;99.90;;;;;;5034934;28;20437;-59
2023/06/12 03:54:32;;;;;;;8.75;3.97;;;16.00;99.90;;;;;;5035516;28;20127;-59
2023/06/12 03:56:58;;;;;;;9.75;4.13;;;16.00;99.90;;;;;;5052959;28;20120;-59
2023/06/12 03:59:24;;;;;;;8.93;4.35;;;16.00;99.90;;;;;;5034365;28;20047;-59
2023/06/12 04:01:51;;;;;;;7.57;3.70;;;16.00;99.90;;;;;;5018951;28;20067;-59
2023/06/12 04:04:17;;;;;;;10.13;3.67;;;16.00;99.90;;;;;;5069580;28;20051;-59
2023/06/12 04:06:45;;;;;;;9.20;4.03;;;16.00;99.90;;;;;;5054274;28;20044;-59
2023/06/12 04:09:15;;;;;;;8.50;3.70;;;16.10;99.90;;;;;;5072750;28;20032;-59
2023/06/12 04:11:42;;;;;;;7.85;3.60;;;16.10;99.90;;;;;;5054870;28;20119;-59
2023/06/12 04:14:08;;;;;;;8.23;3.90;;;16.10;99.90;;;;;;5056726;28;20048;-59
2023/06/12 04:16:34;;;;;;;6.57;3.33;;;16.10;99.90;;;;;;5035104;28;20037;-59
2023/06/12 04:19:03;;;;;;;11.05;4.28;;;16.10;99.90;;;;;;5052500;28;20052;-59
2023/06/12 04:21:32;;;;;;;8.77;4.45;;;16.20;99.90;;;;;;5051956;28;20080;-60
2023/06/12 04:24:05;;;;;;;6.65;4.00;;;16.20;99.90;;;;;;5034937;28;20109;-59
2023/06/12 04:26:31;;;;;;;9.38;4.28;;;16.20;99.90;;;;;;5033395;28;20405;-59
2023/06/12 04:28:57;;;;;;;12.95;3.97;;;16.30;99.90;;;;;;5034898;28;20044;-59
2023/06/12 04:31:26;;;;;;;10.60;3.95;;;16.30;99.90;;;;;;5052591;28;20041;-59
2023/06/12 04:33:54;;;;;;;6.15;3.95;;;16.30;99.90;;;;;;5058633;28;20408;-59
2023/06/12 04:36:21;;;;;;;7.05;3.95;;;16.40;99.90;;;;;;5072272;28;20409;-59
2023/06/12 04:38:50;;;;;;;9.52;4.90;;;16.40;99.90;;;;;;5072413;28;20118;-60
2023/06/12 04:41:19;;;;;;;13.50;4.43;;;16.50;99.90;;;;;;5071349;28;20450;-59
2023/06/12 04:43:48;;;;;;;9.85;4.53;;;16.50;99.90;;;;;;5044339;28;20049;-59
2023/06/12 04:46:17;;;;;;;12.75;4.53;;;16.50;99.90;;;;;;5034175;28;20049;-59
2023/06/12 04:48:43;;;;;;;8.05;3.88;;;16.60;99.90;;;;;;5033893;28;20441;-60
2023/06/12 04:51:09;;;;;;;6.88;3.55;;;16.60;99.90;;;;;;5034301;28;20053;-59
2023/06/12 04:53:39;;;;;;;11.50;4.40;;;16.70;99.90;;;;;;5035575;28;20044;-60
2023/06/12 04:56:08;;;;;;;11.95;4.43;;;16.70;99.90;;;;;;5051776;28;20044;-60
2023/06/12 04:58:35;;;;;;;7.22;4.10;;;16.80;99.90;;;;;;5052167;28;20045;-60
2023/06/12 05:01:00;;;;;;;6.90;3.97;;;16.80;99.90;;;;;;5034211;28;20393;-60
2023/06/12 05:03:28;;;;;;;8.27;4.20;;;16.90;99.90;;;;;;5035538;28;20049;-60
2023/06/12 05:05:53;;;;;;;10.80;4.85;;;17.00;99.90;;;;;;5033980;28;20053;-59
2023/06/12 05:08:19;;;;;;;10.77;4.47;;;17.00;99.90;;;;;;5051806;28;20037;-60
2023/06/12 05:10:45;;;;;;;9.88;3.90;;;17.10;99.90;;;;;;5033261;28;20113;-60
2023/06/12 05:13:10;;;;;;;10.30;4.47;;;17.20;99.90;;;;;;5051887;28;20036;-60
2023/06/12 05:15:36;;;;;;;8.80;4.72;;;17.30;99.90;;;;;;5033763;28;20076;-60
2023/06/12 05:18:02;;;;;;;10.35;4.60;;;17.40;99.90;;;;;;5052038;28;20500;-59
2023/06/12 05:20:27;;;;;;;12.63;4.07;;;17.50;99.90;;;;;;5033904;28;20124;-60
2023/06/12 05:22:53;;;;;;;9.90;5.07;;;17.60;99.90;;;;;;5032858;28;20037;-60
2023/06/12 05:25:19;;;;;;;9.73;4.53;;;17.70;99.90;;;;;;5051916;28;20109;-60
2023/06/12 05:27:45;;;;;;;10.93;4.97;;;17.70;99.90;;;;;;5056072;28;20029;-60
2023/06/12 05:30:11;;;;;;;8.77;4.90;;;17.80;99.90;;;;;;5037541;28;20104;-60
2023/06/12 05:32:37;;;;;;;10.82;5.47;;;17.90;99.90;;;;;;5055952;28;20120;-60
2023/06/12 05:35:03;;;;;;;9.45;5.63;;;18.00;99.90;;;;;;5055916;28;20572;-60
2023/06/12 05:37:29;;;;;;;10.70;4.80;;;18.00;99.90;;;;;;5036961;28;20041;-60
2023/06/12 05:39:54;;;;;;;9.60;4.47;;;18.20;99.90;;;;;;5037942;28;20060;-60
2023/06/12 05:42:20;;;;;;;10.10;4.63;;;18.20;99.90;;;;;;5045274;28;20095;-59
2023/06/12 05:44:49;;;;;;;9.30;4.82;;;18.20;99.90;;;;;;5054777;28;20075;-60
2023/06/12 05:47:15;;;;;;;8.88;4.28;;;18.30;99.90;;;;;;5055482;28;20037;-60
2023/06/12 05:49:41;;;;;;;9.15;5.22;;;18.30;99.90;;;;;;5037651;28;20087;-60
2023/06/12 05:52:07;;;;;;;13.82;5.85;;;18.40;99.90;;;;;;5054825;28;20044;-59
2023/06/12 05:54:33;;;;;;;9.73;4.93;;;18.50;99.90;;;;;;5055523;28;20025;-59
2023/06/12 05:57:00;;;;;;;8.65;4.68;;;18.50;99.90;;;;;;5037696;28;20449;-60
2023/06/12 05:59:26;;;;;;;10.63;4.30;;;18.60;99.90;;;;;;5036732;28;20045;-60
2023/06/12 06:01:52;;;;;;;8.63;5.05;;;18.70;99.90;;;;;;5055404;28;20044;-59
2023/06/12 06:04:17;;;;;;;13.75;5.20;;;18.70;99.90;;;;;;5054906;28;20029;-60
2023/06/12 06:06:43;;;;;;;10.90;5.07;;;18.80;99.90;;;;;;5036442;28;20041;-60
2023/06/12 06:09:09;;;;;;;11.68;4.65;;;18.90;99.90;;;;;;5051685;28;20066;-61
2023/06/12 06:11:35;;;;;;;7.57;4.63;;;18.90;99.90;;;;;;5075234;28;20037;-60
2023/06/12 06:14:03;;;;;;;10.73;5.57;;;19.10;99.90;;;;;;5056465;28;20049;-60
2023/06/12 06:16:28;;;;;;;9.15;4.97;;;19.20;99.90;;;;;;5052263;28;20095;-60
2023/06/12 06:18:54;;;;;;;9.50;5.15;;;19.30;99.90;;;;;;5035231;28;20503;-60
2023/06/12 06:21:20;;;;;;;9.15;4.68;;;19.30;99.90;;;;;;5034393;28;20456;-60
2023/06/12 06:23:45;;;;;;;12.90;5.25;;;19.40;99.90;;;;;;5052071;28;20044;-60
2023/06/12 06:26:12;;;;;;;7.65;5.15;;;19.40;99.90;;;;;;5049329;28;20037;-60
2023/06/12 06:28:38;;;;;;;7.13;4.35;;;19.50;99.90;;;;;;5045435;28;20056;-60
2023/06/12 06:31:09;;;;;;;10.35;4.80;;;19.50;99.90;;;;;;5051854;28;20044;-60
2023/06/12 06:33:35;;;;;;;14.48;4.97;;;19.50;99.90;;;;;;5062545;28;20028;-60
2023/06/12 06:36:01;;;;;;;9.52;5.20;;;19.60;99.90;;;;;;5051749;28;20350;-60
2023/06/12 06:38:27;;;;;;;28.80;17.70;;;19.70;99.90;;;;;;5046903;28;20048;-60
2023/06/12 06:40:53;;;;;;;31.38;20.25;;;19.90;99.90;;;;;;5045212;28;20051;-60
2023/06/12 06:43:19;;;;;;;11.98;9.70;;;19.90;99.90;;;;;;5071791;28;20139;-59
2023/06/12 06:45:45;;;;;;;15.35;11.80;;;20.00;99.90;;;;;;5037586;28;20071;-60
2023/06/12 06:48:14;;;;;;;9.05;6.18;;;20.10;99.90;;;;;;5053545;28;20127;-60
2023/06/12 06:50:40;;;;;;;8.85;6.32;;;20.20;99.90;;;;;;5028526;28;20037;-60
2023/06/12 06:53:06;;;;;;;9.00;5.53;;;20.40;99.90;;;;;;5067033;28;20125;-60
2023/06/12 06:55:33;;;;;;;12.23;7.30;;;20.50;99.90;;;;;;5036874;28;20072;-59
2023/06/12 06:57:59;;;;;;;9.30;5.38;;;20.60;99.90;;;;;;5071374;28;20045;-59
2023/06/12 07:00:26;;;;;;;9.48;7.32;;;20.70;99.90;;;;;;5053527;28;20040;-60
2023/06/12 07:02:52;;;;;;;10.60;5.00;;;20.70;99.90;;;;;;5070249;28;20409;-60
2023/06/12 07:05:18;;;;;;;11.20;5.90;;;20.80;99.90;;;;;;5036838;28;20156;-60
2023/06/12 07:07:45;;;;;;;8.52;5.25;;;20.90;99.90;;;;;;5047588;28;20064;-60
2023/06/12 07:10:10;;;;;;;9.63;5.90;;;20.80;99.90;;;;;;5032675;28;20052;-60
2023/06/12 07:12:36;;;;;;;9.05;5.32;;;20.90;99.90;;;;;;5069962;28;20043;-60
2023/06/12 07:15:03;;;;;;;8.57;5.68;;;20.90;99.90;;;;;;5053392;28;20040;-60
2023/06/12 07:17:29;;;;;;;10.55;5.40;;;20.90;99.90;;;;;;5052414;28;20158;-60
2023/06/12 07:19:55;;;;;;;8.93;5.32;;;21.00;99.90;;;;;;5052316;28;20127;-60
2023/06/12 07:22:20;;;;;;;10.15;5.28;;;21.10;99.90;;;;;;5035200;28;20032;-60
2023/06/12 07:24:46;;;;;;;8.63;4.90;;;21.20;99.90;;;;;;5051293;28;20048;-60
2023/06/12 07:27:12;;;;;;;7.55;5.25;;;21.20;99.90;;;;;;5052834;28;20044;-60
2023/06/12 07:29:37;;;;;;;10.73;5.30;;;21.30;99.90;;;;;;5041698;28;20041;-60
2023/06/12 07:32:03;;;;;;;10.25;4.80;;;21.30;99.90;;;;;;5045374;28;20098;-60
2023/06/12 07:34:29;;;;;;;8.32;5.68;;;21.40;99.90;;;;;;5052803;28;20123;-60
2023/06/12 07:36:56;;;;;;;9.90;5.97;;;21.40;99.90;;;;;;5051528;28;20052;-60
2023/06/12 07:39:21;;;;;;;10.02;6.95;;;21.50;99.90;;;;;;5053278;28;20661;-61
2023/06/12 07:41:48;;;;;;;12.38;6.10;;;21.50;99.90;;;;;;5052027;28;20044;-62
2023/06/12 07:44:14;;;;;;;9.80;5.78;;;21.60;99.90;;;;;;5046684;28;20250;-62
2023/06/12 07:46:42;;;;;;;9.73;4.97;;;21.60;99.90;;;;;;5029979;28;20822;-62
2023/06/12 07:49:07;;;;;;;9.65;6.15;;;21.70;99.90;;;;;;5021849;28;20036;-62
2023/06/12 07:51:33;;;;;;;8.18;5.30;;;21.80;99.90;;;;;;5042796;28;20043;-63
2023/06/12 07:53:59;;;;;;;10.38;5.45;;;21.90;99.90;;;;;;5072948;28;20040;-63
2023/06/12 07:56:24;;;;;;;8.85;4.82;;;22.00;99.90;;;;;;5077384;28;20072;-62
2023/06/12 07:58:51;;;;;;;10.38;5.43;;;22.10;99.90;;;;;;5032208;28;20052;-62
2023/06/12 08:01:17;;;;;;;8.50;4.75;;;22.10;99.90;;;;;;5055599;28;20116;-62
2023/06/12 08:03:43;;;;;;;8.23;4.90;;;22.20;99.90;;;;;;5070039;28;20090;-62
2023/06/12 08:06:14;;;;;;;9.32;5.75;;;22.30;99.90;;;;;;5059797;28;20036;-62
2023/06/12 08:08:43;;;;;;;8.27;5.60;;;22.30;99.90;;;;;;5042459;28;20052;-62
2023/06/12 08:11:10;;;;;;;9.07;4.97;;;22.40;99.90;;;;;;5054720;28;20041;-62
2023/06/12 08:13:36;;;;;;;9.43;5.45;;;22.50;99.90;;;;;;5045881;28;20052;-62
2023/06/12 08:16:02;;;;;;;7.07;4.57;;;22.60;99.90;;;;;;5039236;28;20037;-62
2023/06/12 08:18:28;;;;;;;8.48;4.88;;;22.70;99.90;;;;;;5036799;28;20387;-62
2023/06/12 08:20:53;;;;;;;7.97;4.50;;;22.80;99.90;;;;;;5046589;28;20051;-62
2023/06/12 08:23:20;;;;;;;11.13;5.13;;;22.90;99.90;;;;;;5052999;28;20049;-62
2023/06/12 08:25:45;;;;;;;8.15;4.57;;;23.00;99.90;;;;;;5038145;28;20127;-62
2023/06/12 08:28:11;;;;;;;8.57;5.00;;;23.10;99.90;;;;;;5038847;28;20135;-62
2023/06/12 08:30:37;;;;;;;7.75;4.30;;;23.20;99.90;;;;;;5041392;28;20035;-62
2023/06/12 08:33:05;;;;;;;9.10;4.57;;;23.20;99.90;;;;;;5038756;28;20044;-61
2023/06/12 08:35:31;;;;;;;12.18;4.68;;;23.30;99.90;;;;;;5055135;28;20083;-62
2023/06/12 08:37:57;;;;;;;13.48;4.80;;;23.40;99.90;;;;;;5069384;28;20044;-62
2023/06/12 08:40:22;;;;;;;6.35;3.80;;;23.50;99.90;;;;;;5050588;28;20036;-63
2023/06/12 08:42:51;;;;;;;8.32;3.92;;;23.50;99.20;;;;;;5037312;28;20060;-64
2023/06/12 08:45:19;;;;;;;6.35;4.10;;;23.50;97.90;;;;;;5050707;28;20048;-64
2023/06/12 08:47:51;;;;;;;9.15;4.20;;;23.60;98.10;;;;;;5070477;28;20128;-64
2023/06/12 08:50:18;;;;;;;6.03;3.90;;;23.60;96.10;;;;;;5054597;28;20424;-64
2023/06/12 08:52:44;;;;;;;9.73;5.03;;;23.70;97.30;;;;;;5072238;28;20051;-65
2023/06/12 08:55:13;;;;;;;8.80;4.45;;;23.90;96.70;;;;;;5069633;28;20115;-62
2023/06/12 08:57:39;;;;;;;8.40;4.20;;;24.00;97.10;;;;;;5040981;28;20335;-63
2023/06/12 09:00:13;;;;;;;8.50;4.85;;;24.10;96.00;;;;;;5051991;28;20040;-64
2023/06/12 09:02:44;;;;;;;8.07;4.25;;;24.10;95.30;;;;;;5053308;28;20040;-64
2023/06/12 09:05:16;;;;;;;7.97;4.32;;;24.10;94.70;;;;;;5054290;28;20374;-64
2023/06/12 09:07:44;;;;;;;6.40;3.78;;;24.10;94.50;;;;;;5053496;28;20052;-63
2023/06/12 09:10:10;;;;;;;7.38;4.07;;;24.10;95.10;;;;;;5071388;28;20041;-64
2023/06/12 09:12:35;;;;;;;8.27;4.15;;;24.10;94.20;;;;;;5063570;28;20102;-61
2023/06/12 09:15:02;;;;;;;12.38;4.63;;;24.20;94.20;;;;;;5071252;28;20040;-62
2023/06/12 09:17:30;;;;;;;11.40;4.15;;;24.30;94.10;;;;;;5071938;28;20121;-64
2023/06/12 09:19:56;;;;;;;6.90;4.43;;;24.40;94.00;;;;;;5053951;28;20074;-61
2023/06/12 09:22:22;;;;;;;10.18;4.30;;;24.50;93.30;;;;;;5069415;28;20086;-62
2023/06/12 09:24:48;;;;;;;8.88;4.40;;;24.50;93.20;;;;;;5070918;28;20407;-61
2023/06/12 09:27:13;;;;;;;7.95;4.25;;;24.60;93.10;;;;;;5053789;28;20445;-62
2023/06/12 09:29:41;;;;;;;7.10;4.07;;;24.60;92.60;;;;;;5053332;28;20040;-62
2023/06/12 09:32:10;;;;;;;8.50;3.80;;;24.70;92.80;;;;;;5062513;28;20037;-60
2023/06/12 09:34:37;;;;;;;9.38;4.20;;;24.70;91.70;;;;;;5067732;28;20400;-61
2023/06/12 09:37:09;;;;;;;7.80;4.18;;;24.70;91.60;;;;;;5066732;28;20041;-60
2023/06/12 09:39:35;;;;;;;8.13;4.80;;;24.80;91.30;;;;;;5052154;28;20048;-61
2023/06/12 09:42:02;;;;;;;7.43;4.75;;;24.90;91.30;;;;;;5033865;28;20040;-61
2023/06/12 09:44:29;;;;;;;8.57;4.50;;;24.90;90.70;;;;;;5050475;28;20401;-61
2023/06/12 09:47:03;;;;;;;10.40;4.63;;;24.90;90.60;;;;;;5033617;28;20048;-61
2023/06/12 09:49:30;;;;;;;7.00;4.65;;;24.90;91.00;;;;;;5034020;28;20432;-61
2023/06/12 09:52:00;;;;;;;7.45;4.68;;;25.00;91.50;;;;;;5033129;28;20421;-60
2023/06/12 09:54:29;;;;;;;9.85;4.00;;;25.10;91.10;;;;;;5034942;28;20041;-61
2023/06/12 09:56:58;;;;;;;12.40;4.63;;;25.20;90.10;;;;;;5032976;28;20041;-61
2023/06/12 09:59:27;;;;;;;7.22;4.45;;;25.20;88.20;;;;;;5051499;28;20040;-62
2023/06/12 10:02:00;;;;;;;10.50;3.75;;;25.20;85.30;;;;;;5017143;28;20033;-62
2023/06/12 10:04:32;;;;;;;7.88;4.63;;;25.20;85.20;;;;;;5016344;28;20102;-62
2023/06/12 10:07:05;;;;;;;6.40;3.85;;;25.30;86.20;;;;;;5051281;28;20487;-64
2023/06/12 10:09:32;;;;;;;9.93;4.43;;;25.50;84.50;;;;;;5051504;28;20482;-63
2023/06/12 10:11:59;;;;;;;6.75;4.13;;;25.60;82.50;;;;;;5051482;28;20041;-63
2023/06/12 10:14:29;;;;;;;7.88;3.90;;;25.60;80.70;;;;;;5053763;28;20040;-61
2023/06/12 10:16:57;;;;;;;8.57;3.67;;;25.60;79.30;;;;;;5020648;28;20044;-63
2023/06/12 10:19:26;;;;;;;7.35;3.65;;;25.70;78.70;;;;;;5036555;28;20145;-62
2023/06/12 10:21:55;;;;;;;6.05;4.05;;;25.70;76.60;;;;;;5054973;28;20045;-62
2023/06/12 10:24:22;;;;;;;6.18;4.13;;;25.70;73.80;;;;;;5037261;28;20397;-62
2023/06/12 10:26:51;;;;;;;8.95;4.10;;;25.70;73.40;;;;;;5052519;28;20051;-62
2023/06/12 10:29:31;;;;;;;7.70;3.88;;;25.80;73.70;;;;;;5036861;28;20041;-62
2023/06/12 10:32:04;;;;;;;11.68;4.47;;;26.00;74.50;;;;;;5036970;28;20045;-62
2023/06/12 10:34:33;;;;;;;9.50;4.40;;;26.10;74.30;;;;;;5020685;28;20072;-62
2023/06/12 10:37:18;;;;;;;9.52;4.05;;;26.20;74.30;;;;;;5020338;28;20040;-62
2023/06/12 10:39:46;;;;;;;5.80;3.67;;;26.20;73.60;;;;;;5035982;28;20051;-63
2023/06/12 10:42:12;;;;;;;8.02;4.10;;;26.30;71.40;;;;;;5054419;28;20047;-62
2023/06/12 10:44:39;;;;;;;6.68;4.15;;;26.40;69.50;;;;;;5036654;28;20045;-63
2023/06/12 10:47:20;;;;;;;6.75;3.47;;;26.40;65.30;;;;;;5053970;28;20037;-63
2023/06/12 10:50:03;;;;;;;7.38;3.80;;;26.40;64.70;;;;;;5054452;28;20041;-63
2023/06/12 10:52:29;;;;;;;7.35;3.70;;;26.40;65.20;;;;;;5036425;28;20482;-63
2023/06/12 10:55:20;;;;;;;7.03;4.03;;;26.40;65.60;;;;;;5052329;28;20041;-63
2023/06/12 10:57:53;;;;;;;5.63;3.33;;;26.60;66.00;;;;;;5019801;28;20485;-63
2023/06/12 11:00:27;;;;;;;5.57;3.53;;;26.70;62.50;;;;;;5035674;28;20504;-61
2023/06/12 11:02:58;;;;;;;8.18;3.35;;;26.80;63.80;;;;;;5019764;28;20039;-61
2023/06/12 11:05:26;;;;;;;9.45;3.60;;;26.90;62.00;;;;;;5035743;28;20044;-62
2023/06/12 11:07:55;;;;;;;6.75;3.72;;;27.00;63.20;;;;;;5061530;28;20033;-60
2023/06/12 11:10:21;;;;;;;8.25;4.22;;;27.20;64.40;;;;;;5051591;28;20489;-62
2023/06/12 11:12:51;;;;;;;6.53;3.80;;;27.30;63.90;;;;;;5051258;28;20125;-61
2023/06/12 11:15:17;;;;;;;8.27;4.00;;;27.30;61.30;;;;;;5049844;28;20025;-62
2023/06/12 11:17:43;;;;;;;6.22;3.97;;;27.30;61.00;;;;;;5045956;28;20466;-64
2023/06/12 11:20:10;;;;;;;6.75;4.10;;;27.40;61.70;;;;;;5039762;28;20436;-62
2023/06/12 11:22:36;;;;;;;7.03;4.00;;;27.40;61.70;;;;;;5038696;28;20417;-63
2023/06/12 11:25:06;;;;;;;7.85;4.35;;;27.40;60.70;;;;;;5041518;28;20497;-63
2023/06/12 11:27:36;;;;;;;7.72;4.30;;;27.50;61.70;;;;;;5073988;28;20040;-64
2023/06/12 11:30:12;;;;;;;6.82;4.88;;;27.60;63.40;;;;;;5042259;28;20575;-63
2023/06/12 11:32:39;;;;;;;6.53;4.28;;;27.70;64.60;;;;;;5036028;28;20072;-62
2023/06/12 11:35:09;;;;;;;10.10;4.35;;;27.60;63.70;;;;;;5054302;28;20040;-63
2023/06/12 11:37:37;;;;;;;8.27;4.85;;;27.60;62.80;;;;;;5055470;28;20062;-63
2023/06/12 11:40:08;;;;;;;9.15;5.32;;;27.40;62.90;;;;;;5056081;28;20970;-60
2023/06/12 11:42:36;;;;;;;10.00;4.75;;;27.40;63.20;;;;;;5049851;28;20095;-63
2023/06/12 11:45:02;;;;;;;8.82;4.97;;;27.40;64.20;;;;;;5033393;28;20424;-63
2023/06/12 11:47:28;;;;;;;7.93;4.53;;;27.40;63.30;;;;;;5016871;28;20127;-62
2023/06/12 11:49:54;;;;;;;8.88;5.03;;;27.40;63.40;;;;;;5032578;28;20036;-62
2023/06/12 11:52:21;;;;;;;8.75;4.70;;;27.50;63.10;;;;;;5033158;28;20048;-62
2023/06/12 11:54:58;;;;;;;8.48;5.68;;;27.60;64.20;;;;;;5032903;28;20106;-62
2023/06/12 11:57:26;;;;;;;7.50;4.57;;;27.70;63.90;;;;;;5033115;28;20044;-63
2023/06/12 11:59:56;;;;;;;9.27;5.32;;;27.70;64.40;;;;;;5050820;28;20052;-64
2023/06/12 12:02:39;;;;;;;7.00;5.13;;;27.80;63.80;;;;;;5052005;28;20120;-64
2023/06/12 12:05:06;;;;;;;9.40;4.68;;;28.00;62.90;;;;;;5050637;28;20036;-64
2023/06/12 12:07:32;;;;;;;7.85;4.80;;;28.10;62.80;;;;;;5032744;28;20049;-64
2023/06/12 12:10:12;;;;;;;6.65;4.97;;;28.20;61.90;;;;;;5050669;28;20047;-64
2023/06/12 12:12:50;;;;;;;8.70;4.40;;;28.20;62.50;;;;;;5048580;28;20043;-62
2023/06/12 12:15:17;;;;;;;10.77;5.05;;;28.30;59.60;;;;;;5050775;28;20135;-62
2023/06/12 12:17:44;;;;;;;8.48;4.82;;;28.30;58.90;;;;;;5073055;28;20047;-63
2023/06/12 12:20:18;;;;;;;10.02;4.50;;;28.30;58.60;;;;;;5047927;28;20056;-62
2023/06/12 12:22:49;;;;;;;7.57;4.82;;;28.40;59.40;;;;;;5052093;28;20033;-61
2023/06/12 12:25:21;;;;;;;8.38;4.50;;;28.40;59.50;;;;;;5051122;28;20037;-62
2023/06/12 12:27:49;;;;;;;9.25;4.90;;;28.30;58.80;;;;;;5069727;28;20507;-62
2023/06/12 12:30:16;;;;;;;7.75;4.38;;;28.20;58.60;;;;;;5070126;28;20029;-61
2023/06/12 12:32:47;;;;;;;7.65;4.75;;;28.30;58.30;;;;;;5053541;28;20119;-62
2023/06/12 12:35:16;;;;;;;8.13;4.80;;;28.30;58.30;;;;;;5090549;28;20036;-62
2023/06/12 12:37:45;;;;;;;10.35;4.93;;;28.20;58.50;;;;;;5072245;28;20038;-62
2023/06/12 12:40:13;;;;;;;8.18;4.93;;;28.20;58.40;;;;;;5031611;28;20037;-62
2023/06/12 12:42:46;;;;;;;14.45;4.65;;;28.30;58.40;;;;;;5050493;28;20076;-62
2023/06/12 12:45:15;;;;;;;11.43;5.40;;;28.50;59.20;;;;;;5051894;28;20044;-62
2023/06/12 12:47:41;;;;;;;9.00;5.25;;;28.70;59.80;;;;;;5069295;28;20051;-62